sensor_id;sensor_type;location;lat;lon;timestamp;pressure;altitude;pressure_sealevel;temperature;humidity
20656;BME280;10487;53.320;8.672;2022-08-25T00:00:22;101759.41;;;19.24;35.25
20656;BME280;10487;53.320;8.672;2022-08-25T00:03:24;101759.84;;;19.20;35.56
20656;BME280;10487;53.320;8.672;2022-08-25T00:06:26;101757.59;;;19.15;35.09
20656;BME280;10487;53.320;8.672;2022-08-25T00:09:29;101748.06;;;19.11;35.16
20656;BME280;10487;53.320;8.672;2022-08-25T00:12:32;101747.59;;;19.06;35.29
20656;BME280;10487;53.320;8.672;2022-08-25T00:15:34;101749.88;;;19.01;35.40
20656;BME280;10487;53.320;8.672;2022-08-25T00:18:37;101748.44;;;18.97;35.37
20656;BME280;10487;53.320;8.672;2022-08-25T00:21:40;101745.31;;;18.92;35.55
20656;BME280;10487;53.320;8.672;2022-08-25T00:24:41;101748.31;;;18.89;35.39
20656;BME280;10487;53.320;8.672;2022-08-25T00:27:43;101748.31;;;18.89;35.50
20656;BME280;10487;53.320;8.672;2022-08-25T00:30:47;101748.47;;;18.88;35.80
20656;BME280;10487;53.320;8.672;2022-08-25T00:33:50;101754.03;;;18.86;35.85
20656;BME280;10487;53.320;8.672;2022-08-25T00:36:53;101749.06;;;18.81;35.65
20656;BME280;10487;53.320;8.672;2022-08-25T00:39:55;101750.31;;;18.77;35.96
20656;BME280;10487;53.320;8.672;2022-08-25T00:42:57;101749.75;;;18.74;35.96
20656;BME280;10487;53.320;8.672;2022-08-25T00:45:59;101750.75;;;18.73;35.72
20656;BME280;10487;53.320;8.672;2022-08-25T00:49:05;101742.91;;;18.70;35.57
20656;BME280;10487;53.320;8.672;2022-08-25T00:52:24;101751.28;;;18.67;36.13
20656;BME280;10487;53.320;8.672;2022-08-25T00:55:29;101746.19;;;18.64;35.83
20656;BME280;10487;53.320;8.672;2022-08-25T00:58:32;101756.16;;;18.63;36.10
20656;BME280;10487;53.320;8.672;2022-08-25T01:01:35;101757.28;;;18.61;35.81
20656;BME280;10487;53.320;8.672;2022-08-25T01:04:37;101750.31;;;18.58;35.77
20656;BME280;10487;53.320;8.672;2022-08-25T01:07:40;101751.28;;;18.57;36.31
20656;BME280;10487;53.320;8.672;2022-08-25T01:10:45;101750.59;;;18.55;35.88
20656;BME280;10487;53.320;8.672;2022-08-25T01:13:51;101761.53;;;18.54;36.13
20656;BME280;10487;53.320;8.672;2022-08-25T01:16:54;101762.69;;;18.51;35.98
20656;BME280;10487;53.320;8.672;2022-08-25T01:20:18;101763.09;;;18.47;36.02
20656;BME280;10487;53.320;8.672;2022-08-25T01:23:23;101762.78;;;18.40;36.38
20656;BME280;10487;53.320;8.672;2022-08-25T01:26:32;101765.28;;;18.32;36.04
20656;BME280;10487;53.320;8.672;2022-08-25T01:54:35;101764.72;;;17.38;36.99
20656;BME280;10487;53.320;8.672;2022-08-25T01:57:36;101772.81;;;17.38;37.05
20656;BME280;10487;53.320;8.672;2022-08-25T02:00:44;101757.88;;;17.34;37.17
20656;BME280;10487;53.320;8.672;2022-08-25T02:03:49;101756.72;;;17.27;37.18
20656;BME280;10487;53.320;8.672;2022-08-25T02:06:51;101760.94;;;17.20;37.09
20656;BME280;10487;53.320;8.672;2022-08-25T02:09:52;101748.81;;;17.14;37.22
20656;BME280;10487;53.320;8.672;2022-08-25T02:12:54;101760.00;;;17.10;37.42
20656;BME280;10487;53.320;8.672;2022-08-25T02:15:58;101756.84;;;17.05;37.54
20656;BME280;10487;53.320;8.672;2022-08-25T02:19:01;101755.38;;;17.01;37.61
20656;BME280;10487;53.320;8.672;2022-08-25T02:22:03;101759.06;;;17.00;37.68
20656;BME280;10487;53.320;8.672;2022-08-25T02:25:05;101752.09;;;16.97;37.91
20656;BME280;10487;53.320;8.672;2022-08-25T02:28:08;101757.50;;;16.97;37.73
20656;BME280;10487;53.320;8.672;2022-08-25T02:31:09;101754.91;;;16.96;37.84
20656;BME280;10487;53.320;8.672;2022-08-25T02:34:12;101754.19;;;16.93;37.81
20656;BME280;10487;53.320;8.672;2022-08-25T02:37:15;101756.16;;;16.91;38.09
20656;BME280;10487;53.320;8.672;2022-08-25T02:40:17;101751.88;;;16.89;37.89
20656;BME280;10487;53.320;8.672;2022-08-25T02:43:21;101749.34;;;16.87;37.89
20656;BME280;10487;53.320;8.672;2022-08-25T02:46:23;101747.59;;;16.86;38.03
20656;BME280;10487;53.320;8.672;2022-08-25T02:49:25;101746.75;;;16.86;38.27
20656;BME280;10487;53.320;8.672;2022-08-25T02:52:27;101746.13;;;16.82;38.19
20656;BME280;10487;53.320;8.672;2022-08-25T02:55:29;101751.78;;;16.79;38.26
20656;BME280;10487;53.320;8.672;2022-08-25T03:01:37;101758.66;;;16.72;38.57
20656;BME280;10487;53.320;8.672;2022-08-25T03:04:39;101743.47;;;16.71;38.68
20656;BME280;10487;53.320;8.672;2022-08-25T03:07:40;101742.59;;;16.71;38.57
20656;BME280;10487;53.320;8.672;2022-08-25T03:10:42;101741.78;;;16.70;38.90
20656;BME280;10487;53.320;8.672;2022-08-25T03:13:44;101749.97;;;16.69;38.78
20656;BME280;10487;53.320;8.672;2022-08-25T03:16:46;101743.88;;;16.67;39.02
20656;BME280;10487;53.320;8.672;2022-08-25T03:19:48;101738.72;;;16.64;39.00
20656;BME280;10487;53.320;8.672;2022-08-25T03:22:50;101744.25;;;16.62;39.22
20656;BME280;10487;53.320;8.672;2022-08-25T03:25:55;101738.88;;;16.62;39.04
20656;BME280;10487;53.320;8.672;2022-08-25T03:29:16;101735.44;;;16.60;39.22
20656;BME280;10487;53.320;8.672;2022-08-25T03:32:18;101735.69;;;16.57;39.24
20656;BME280;10487;53.320;8.672;2022-08-25T03:35:21;101733.25;;;16.54;39.48
20656;BME280;10487;53.320;8.672;2022-08-25T03:38:23;101728.25;;;16.50;39.57
20656;BME280;10487;53.320;8.672;2022-08-25T03:41:27;101727.63;;;16.46;39.41
20656;BME280;10487;53.320;8.672;2022-08-25T03:44:30;101724.38;;;16.43;39.90
20656;BME280;10487;53.320;8.672;2022-08-25T03:47:32;101720.81;;;16.42;39.56
20656;BME280;10487;53.320;8.672;2022-08-25T03:50:34;101720.09;;;16.40;39.59
20656;BME280;10487;53.320;8.672;2022-08-25T03:53:36;101723.88;;;16.38;39.97
20656;BME280;10487;53.320;8.672;2022-08-25T03:56:38;101730.25;;;16.37;39.93
20656;BME280;10487;53.320;8.672;2022-08-25T03:59:41;101715.91;;;16.36;39.94
20656;BME280;10487;53.320;8.672;2022-08-25T04:02:43;101733.06;;;16.35;40.03
20656;BME280;10487;53.320;8.672;2022-08-25T04:05:45;101732.22;;;16.35;40.03
20656;BME280;10487;53.320;8.672;2022-08-25T04:08:47;101730.63;;;16.32;40.17
20656;BME280;10487;53.320;8.672;2022-08-25T04:11:50;101725.25;;;16.32;40.21
20656;BME280;10487;53.320;8.672;2022-08-25T04:14:53;101736.00;;;16.32;40.33
20656;BME280;10487;53.320;8.672;2022-08-25T04:17:55;101739.69;;;16.31;40.25
20656;BME280;10487;53.320;8.672;2022-08-25T04:21:04;101738.84;;;16.31;40.62
20656;BME280;10487;53.320;8.672;2022-08-25T04:24:08;101735.53;;;16.27;40.64
20656;BME280;10487;53.320;8.672;2022-08-25T04:27:10;101727.69;;;16.24;40.69
20656;BME280;10487;53.320;8.672;2022-08-25T04:30:12;101726.88;;;16.23;40.70
20656;BME280;10487;53.320;8.672;2022-08-25T04:33:14;101731.63;;;16.20;40.79
20656;BME280;10487;53.320;8.672;2022-08-25T04:36:17;101723.81;;;16.17;40.84
20656;BME280;10487;53.320;8.672;2022-08-25T04:39:19;101710.47;;;16.15;40.98
20656;BME280;10487;53.320;8.672;2022-08-25T04:42:21;101715.97;;;16.14;40.97
20656;BME280;10487;53.320;8.672;2022-08-25T04:45:23;101715.97;;;16.14;41.06
20656;BME280;10487;53.320;8.672;2022-08-25T04:48:25;101716.25;;;16.11;41.11
20656;BME280;10487;53.320;8.672;2022-08-25T04:51:32;101710.00;;;16.10;41.10
20656;BME280;10487;53.320;8.672;2022-08-25T04:54:35;101714.53;;;16.10;41.52
20656;BME280;10487;53.320;8.672;2022-08-25T04:57:37;101714.53;;;16.10;41.21
20656;BME280;10487;53.320;8.672;2022-08-25T05:00:40;101719.66;;;16.13;41.28
20656;BME280;10487;53.320;8.672;2022-08-25T05:03:42;101714.47;;;16.32;41.51
20656;BME280;10487;53.320;8.672;2022-08-25T05:06:45;101719.09;;;16.41;41.48
20656;BME280;10487;53.320;8.672;2022-08-25T05:09:47;101710.91;;;16.43;41.55
20656;BME280;10487;53.320;8.672;2022-08-25T05:12:48;101720.81;;;16.42;41.52
20656;BME280;10487;53.320;8.672;2022-08-25T05:15:55;101724.47;;;16.41;41.65
20656;BME280;10487;53.320;8.672;2022-08-25T05:19:00;101730.25;;;16.37;41.92
20656;BME280;10487;53.320;8.672;2022-08-25T05:22:02;101730.13;;;16.38;41.95
20656;BME280;10487;53.320;8.672;2022-08-25T05:25:04;101719.22;;;16.40;41.87
20656;BME280;10487;53.320;8.672;2022-08-25T05:28:05;101711.75;;;16.43;42.03
20656;BME280;10487;53.320;8.672;2022-08-25T05:31:10;101707.94;;;16.46;42.23
20656;BME280;10487;53.320;8.672;2022-08-25T05:34:12;101704.16;;;16.48;42.11
20656;BME280;10487;53.320;8.672;2022-08-25T05:37:13;101698.47;;;16.51;42.22
20656;BME280;10487;53.320;8.672;2022-08-25T05:40:15;101694.56;;;16.55;42.21
20656;BME280;10487;53.320;8.672;2022-08-25T05:43:17;101696.88;;;16.60;42.46
20656;BME280;10487;53.320;8.672;2022-08-25T05:46:19;101697.44;;;16.63;42.44
20656;BME280;10487;53.320;8.672;2022-08-25T05:49:21;101694.38;;;16.68;42.46
20656;BME280;10487;53.320;8.672;2022-08-25T05:52:25;101698.38;;;16.73;42.70
20656;BME280;10487;53.320;8.672;2022-08-25T05:55:27;101706.09;;;16.78;42.65
20656;BME280;10487;53.320;8.672;2022-08-25T05:58:29;101709.88;;;16.86;42.81
20656;BME280;10487;53.320;8.672;2022-08-25T06:01:32;101704.84;;;16.93;42.69
20656;BME280;10487;53.320;8.672;2022-08-25T06:04:52;101710.53;;;17.00;42.93
20656;BME280;10487;53.320;8.672;2022-08-25T06:07:54;101703.78;;;17.05;42.74
20656;BME280;10487;53.320;8.672;2022-08-25T06:10:56;101700.53;;;17.11;42.90
20656;BME280;10487;53.320;8.672;2022-08-25T06:13:58;101707.41;;;17.15;43.00
20656;BME280;10487;53.320;8.672;2022-08-25T06:17:00;101705.97;;;17.21;42.96
20656;BME280;10487;53.320;8.672;2022-08-25T06:20:02;101702.75;;;17.27;42.80
20656;BME280;10487;53.320;8.672;2022-08-25T06:23:07;101709.34;;;17.34;42.99
20656;BME280;10487;53.320;8.672;2022-08-25T06:26:10;101710.25;;;17.44;43.21
20656;BME280;10487;53.320;8.672;2022-08-25T06:29:21;101712.00;;;17.54;43.01
20656;BME280;10487;53.320;8.672;2022-08-25T06:32:23;101714.06;;;17.62;43.10
20656;BME280;10487;53.320;8.672;2022-08-25T06:35:24;101711.50;;;17.70;43.09
20656;BME280;10487;53.320;8.672;2022-08-25T06:38:26;101705.59;;;17.76;43.38
20656;BME280;10487;53.320;8.672;2022-08-25T06:41:29;101714.13;;;17.81;43.02
20656;BME280;10487;53.320;8.672;2022-08-25T06:44:37;101710.75;;;17.89;43.13
20656;BME280;10487;53.320;8.672;2022-08-25T06:47:39;101693.00;;;17.96;43.28
20656;BME280;10487;53.320;8.672;2022-08-25T06:50:41;101703.81;;;18.05;43.33
20656;BME280;10487;53.320;8.672;2022-08-25T06:53:45;101697.88;;;18.11;43.21
20656;BME280;10487;53.320;8.672;2022-08-25T06:56:48;101700.16;;;18.16;43.75
20656;BME280;10487;53.320;8.672;2022-08-25T06:59:50;101700.31;;;18.24;43.56
20656;BME280;10487;53.320;8.672;2022-08-25T07:02:54;101700.31;;;18.34;43.60
20656;BME280;10487;53.320;8.672;2022-08-25T07:05:55;101694.38;;;18.40;43.37
20656;BME280;10487;53.320;8.672;2022-08-25T07:08:58;101694.53;;;18.48;43.82
20656;BME280;10487;53.320;8.672;2022-08-25T07:11:59;101694.69;;;18.56;43.81
20656;BME280;10487;53.320;8.672;2022-08-25T07:15:04;101692.13;;;18.64;43.54
20656;BME280;10487;53.320;8.672;2022-08-25T07:18:21;101695.53;;;18.75;43.69
20656;BME280;10487;53.320;8.672;2022-08-25T07:21:24;101700.81;;;18.87;43.47
20656;BME280;10487;53.320;8.672;2022-08-25T07:24:33;101693.22;;;19.00;43.75
20656;BME280;10487;53.320;8.672;2022-08-25T07:27:34;101695.81;;;19.11;43.76
20656;BME280;10487;53.320;8.672;2022-08-25T07:30:36;101693.09;;;19.20;43.52
20656;BME280;10487;53.320;8.672;2022-08-25T07:33:38;101697.59;;;19.29;43.49
20656;BME280;10487;53.320;8.672;2022-08-25T07:37:00;101702.16;;;19.38;43.60
20656;BME280;10487;53.320;8.672;2022-08-25T07:40:06;101712.09;;;19.48;43.64
20656;BME280;10487;53.320;8.672;2022-08-25T07:43:08;101703.75;;;19.59;43.72
20656;BME280;10487;53.320;8.672;2022-08-25T07:46:10;101702.59;;;19.71;43.62
20656;BME280;10487;53.320;8.672;2022-08-25T07:49:12;101698.84;;;19.81;43.95
20656;BME280;10487;53.320;8.672;2022-08-25T07:52:17;101697.81;;;19.92;43.90
20656;BME280;10487;53.320;8.672;2022-08-25T07:55:18;101698.59;;;20.02;43.51
20656;BME280;10487;53.320;8.672;2022-08-25T07:58:20;101703.81;;;20.13;43.75
20656;BME280;10487;53.320;8.672;2022-08-25T08:01:23;101708.16;;;20.24;43.71
20656;BME280;10487;53.320;8.672;2022-08-25T08:04:25;101694.41;;;20.35;43.58
20656;BME280;10487;53.320;8.672;2022-08-25T08:07:28;101705.16;;;20.44;43.86
20656;BME280;10487;53.320;8.672;2022-08-25T08:10:43;101689.72;;;20.54;43.87
20656;BME280;10487;53.320;8.672;2022-08-25T08:14:05;101695.06;;;20.64;43.93
20656;BME280;10487;53.320;8.672;2022-08-25T08:17:08;101694.28;;;20.71;43.73
20656;BME280;10487;53.320;8.672;2022-08-25T08:20:11;101694.19;;;20.81;43.81
20656;BME280;10487;53.320;8.672;2022-08-25T08:23:15;101698.81;;;20.89;43.74
20656;BME280;10487;53.320;8.672;2022-08-25T08:26:18;101690.06;;;20.95;43.82
20656;BME280;10487;53.320;8.672;2022-08-25T08:29:20;101688.09;;;21.05;43.57
20656;BME280;10487;53.320;8.672;2022-08-25T08:32:23;101692.78;;;21.12;43.70
20656;BME280;10487;53.320;8.672;2022-08-25T08:35:41;101687.25;;;21.22;43.71
20656;BME280;10487;53.320;8.672;2022-08-25T08:38:44;101687.97;;;21.32;43.78
20656;BME280;10487;53.320;8.672;2022-08-25T08:42:04;101690.41;;;21.43;43.62
20656;BME280;10487;53.320;8.672;2022-08-25T08:45:36;101686.03;;;21.50;43.84
20656;BME280;10487;53.320;8.672;2022-08-25T08:48:59;101677.06;;;21.58;43.47
20656;BME280;10487;53.320;8.672;2022-08-25T08:52:02;101667.13;;;21.66;43.74
20656;BME280;10487;53.320;8.672;2022-08-25T08:55:16;101670.41;;;21.78;43.59
20656;BME280;10487;53.320;8.672;2022-08-25T09:01:57;101679.31;;;21.96;43.57
20656;BME280;10487;53.320;8.672;2022-08-25T09:05:11;101673.06;;;22.04;43.51
20656;BME280;10487;53.320;8.672;2022-08-25T09:08:16;101673.22;;;22.10;43.57
20656;BME280;10487;53.320;8.672;2022-08-25T09:24:39;101660.94;;;22.48;43.33
20656;BME280;10487;53.320;8.672;2022-08-25T09:31:01;101649.56;;;22.69;43.43
20656;BME280;10487;53.320;8.672;2022-08-25T09:34:27;101657.19;;;22.81;43.51
20656;BME280;10487;53.320;8.672;2022-08-25T09:37:31;101653.25;;;22.92;43.35
20656;BME280;10487;53.320;8.672;2022-08-25T09:40:39;101649.19;;;23.04;43.08
20656;BME280;10487;53.320;8.672;2022-08-25T09:43:52;101643.88;;;23.18;43.30
20656;BME280;10487;53.320;8.672;2022-08-25T09:47:06;101640.47;;;23.33;43.14
20656;BME280;10487;53.320;8.672;2022-08-25T09:50:16;101641.06;;;23.51;43.08
20656;BME280;10487;53.320;8.672;2022-08-25T09:53:19;101631.84;;;23.68;42.77
20656;BME280;10487;53.320;8.672;2022-08-25T09:56:28;101629.38;;;23.81;42.60
20656;BME280;10487;53.320;8.672;2022-08-25T09:59:34;101626.59;;;23.97;42.30
20656;BME280;10487;53.320;8.672;2022-08-25T10:02:37;101618.28;;;24.13;42.64
20656;BME280;10487;53.320;8.672;2022-08-25T10:11:48;101604.88;;;24.57;42.12
20656;BME280;10487;53.320;8.672;2022-08-25T10:14:50;101602.72;;;24.67;42.00
20656;BME280;10487;53.320;8.672;2022-08-25T10:17:55;101606.56;;;24.73;42.17
20656;BME280;10487;53.320;8.672;2022-08-25T10:24:09;101590.44;;;24.86;42.04
20656;BME280;10487;53.320;8.672;2022-08-25T10:27:27;101585.50;;;25.04;41.90
20656;BME280;10487;53.320;8.672;2022-08-25T10:41:01;101571.53;;;25.57;41.25
20656;BME280;10487;53.320;8.672;2022-08-25T10:44:23;101562.00;;;25.68;41.20
20656;BME280;10487;53.320;8.672;2022-08-25T10:55:00;101548.38;;;25.53;40.74
20656;BME280;10487;53.320;8.672;2022-08-25T11:08:45;101532.53;;;25.85;40.77
20656;BME280;10487;53.320;8.672;2022-08-25T11:11:58;101531.84;;;25.97;40.63
20656;BME280;10487;53.320;8.672;2022-08-25T11:15:13;101515.31;;;26.05;40.43
20656;BME280;10487;53.320;8.672;2022-08-25T11:18:19;101515.38;;;26.12;40.37
20656;BME280;10487;53.320;8.672;2022-08-25T11:25:25;101513.69;;;26.38;40.38
20656;BME280;10487;53.320;8.672;2022-08-25T11:28:34;101510.41;;;26.43;39.96
20656;BME280;10487;53.320;8.672;2022-08-25T11:31:39;101507.16;;;26.33;40.12
20656;BME280;10487;53.320;8.672;2022-08-25T11:34:42;101499.34;;;26.30;39.93
20656;BME280;10487;53.320;8.672;2022-08-25T11:44:22;101504.97;;;26.77;39.74
20656;BME280;10487;53.320;8.672;2022-08-25T11:51:05;101493.16;;;27.05;39.42
20656;BME280;10487;53.320;8.672;2022-08-25T11:54:23;101493.78;;;27.07;39.49
20656;BME280;10487;53.320;8.672;2022-08-25T11:57:27;101493.56;;;27.08;39.32
20656;BME280;10487;53.320;8.672;2022-08-25T12:00:39;101481.59;;;27.16;39.06
20656;BME280;10487;53.320;8.672;2022-08-25T12:10:09;101471.25;;;27.05;39.13
20656;BME280;10487;53.320;8.672;2022-08-25T12:13:46;101469.59;;;27.10;38.91
20656;BME280;10487;53.320;8.672;2022-08-25T12:19:57;101466.00;;;27.16;38.93
20656;BME280;10487;53.320;8.672;2022-08-25T12:23:01;101455.84;;;27.04;38.73
20656;BME280;10487;53.320;8.672;2022-08-25T12:29:30;101456.94;;;26.75;39.00
20656;BME280;10487;53.320;8.672;2022-08-25T12:36:31;101446.47;;;26.85;38.83
20656;BME280;10487;53.320;8.672;2022-08-25T12:39:51;101455.34;;;26.93;38.94
20656;BME280;10487;53.320;8.672;2022-08-25T12:49:32;101453.00;;;26.84;38.83
20656;BME280;10487;53.320;8.672;2022-08-25T12:52:36;101442.03;;;26.77;38.99
20656;BME280;10487;53.320;8.672;2022-08-25T12:55:43;101446.03;;;26.81;38.86
20656;BME280;10487;53.320;8.672;2022-08-25T13:15:44;101431.53;;;26.87;38.67
20656;BME280;10487;53.320;8.672;2022-08-25T13:18:49;101438.06;;;26.86;38.59
20656;BME280;10487;53.320;8.672;2022-08-25T13:21:53;101426.47;;;26.84;38.48
20656;BME280;10487;53.320;8.672;2022-08-25T13:24:56;101431.13;;;26.90;38.54
20656;BME280;10487;53.320;8.672;2022-08-25T13:28:03;101422.94;;;26.97;38.57
20656;BME280;10487;53.320;8.672;2022-08-25T13:31:18;101413.91;;;27.03;38.69
20656;BME280;10487;53.320;8.672;2022-08-25T13:34:26;101411.63;;;27.07;38.42
20656;BME280;10487;53.320;8.672;2022-08-25T13:37:35;101407.19;;;27.06;38.46
20656;BME280;10487;53.320;8.672;2022-08-25T13:40:37;101395.59;;;27.04;38.54
20656;BME280;10487;53.320;8.672;2022-08-25T13:43:43;101395.84;;;27.09;38.11
20656;BME280;10487;53.320;8.672;2022-08-25T13:46:47;101395.03;;;27.15;38.43
20656;BME280;10487;53.320;8.672;2022-08-25T13:49:50;101391.44;;;27.14;38.57
20656;BME280;10487;53.320;8.672;2022-08-25T13:56:01;101392.06;;;27.16;38.18
20656;BME280;10487;53.320;8.672;2022-08-25T13:59:17;101385.75;;;27.16;38.04
20656;BME280;10487;53.320;8.672;2022-08-25T14:02:44;101385.75;;;27.16;38.15
20656;BME280;10487;53.320;8.672;2022-08-25T14:06:03;101380.25;;;27.16;38.33
20656;BME280;10487;53.320;8.672;2022-08-25T14:09:13;101385.09;;;27.14;38.48
20656;BME280;10487;53.320;8.672;2022-08-25T14:15:30;101370.34;;;27.08;38.17
20656;BME280;10487;53.320;8.672;2022-08-25T14:18:34;101362.56;;;27.05;38.15
20656;BME280;10487;53.320;8.672;2022-08-25T14:21:37;101367.59;;;27.02;38.37
20656;BME280;10487;53.320;8.672;2022-08-25T14:24:42;101363.38;;;26.99;38.42
20656;BME280;10487;53.320;8.672;2022-08-25T14:27:44;101354.50;;;26.97;38.31
20656;BME280;10487;53.320;8.672;2022-08-25T14:31:13;101354.94;;;27.00;38.28
20656;BME280;10487;53.320;8.672;2022-08-25T14:34:20;101359.16;;;27.03;38.13
20656;BME280;10487;53.320;8.672;2022-08-25T14:37:24;101350.31;;;27.01;38.10
20656;BME280;10487;53.320;8.672;2022-08-25T14:40:26;101348.19;;;27.03;38.24
20656;BME280;10487;53.320;8.672;2022-08-25T14:43:34;101344.03;;;27.07;37.99
20656;BME280;10487;53.320;8.672;2022-08-25T14:46:45;101336.66;;;27.14;38.14
20656;BME280;10487;53.320;8.672;2022-08-25T14:49:49;101337.91;;;27.18;38.06
20656;BME280;10487;53.320;8.672;2022-08-25T14:52:51;101334.13;;;27.19;38.14
20656;BME280;10487;53.320;8.672;2022-08-25T14:55:52;101330.97;;;27.16;38.02
20656;BME280;10487;53.320;8.672;2022-08-25T14:59:00;101330.97;;;27.09;38.08
20656;BME280;10487;53.320;8.672;2022-08-25T15:02:02;101319.38;;;27.07;38.00
20656;BME280;10487;53.320;8.672;2022-08-25T15:05:09;101325.06;;;27.12;38.01
20656;BME280;10487;53.320;8.672;2022-08-25T15:08:13;101322.97;;;27.21;38.09
20656;BME280;10487;53.320;8.672;2022-08-25T15:11:34;101319.19;;;27.22;37.93
20656;BME280;10487;53.320;8.672;2022-08-25T15:14:42;101320.22;;;27.14;37.85
20656;BME280;10487;53.320;8.672;2022-08-25T15:17:46;101311.56;;;27.04;37.99
20656;BME280;10487;53.320;8.672;2022-08-25T15:20:50;101306.72;;;26.99;37.75
20656;BME280;10487;53.320;8.672;2022-08-25T15:23:52;101301.00;;;26.94;37.95
20656;BME280;10487;53.320;8.672;2022-08-25T15:26:59;101305.38;;;26.89;37.84
20656;BME280;10487;53.320;8.672;2022-08-25T15:30:03;101303.69;;;26.81;37.67
20656;BME280;10487;53.320;8.672;2022-08-25T15:33:05;101295.88;;;26.78;37.86
20656;BME280;10487;53.320;8.672;2022-08-25T15:36:09;101297.78;;;26.78;37.88
20656;BME280;10487;53.320;8.672;2022-08-25T15:39:16;101288.28;;;26.74;37.85
20656;BME280;10487;53.320;8.672;2022-08-25T15:42:20;101282.81;;;26.74;37.95
20656;BME280;10487;53.320;8.672;2022-08-25T15:45:22;101280.28;;;26.72;38.20
20656;BME280;10487;53.320;8.672;2022-08-25T15:48:24;101286.63;;;26.73;37.88
20656;BME280;10487;53.320;8.672;2022-08-25T15:51:28;101280.28;;;26.72;37.74
20656;BME280;10487;53.320;8.672;2022-08-25T15:54:30;101281.34;;;26.71;37.80
20656;BME280;10487;53.320;8.672;2022-08-25T15:57:32;101282.41;;;26.70;37.91
20656;BME280;10487;53.320;8.672;2022-08-25T16:00:39;101282.16;;;26.65;37.89
20656;BME280;10487;53.320;8.672;2022-08-25T16:03:42;101279.81;;;26.56;37.91
20656;BME280;10487;53.320;8.672;2022-08-25T16:06:44;101274.13;;;26.51;38.04
20656;BME280;10487;53.320;8.672;2022-08-25T16:09:48;101274.31;;;26.49;37.91
20656;BME280;10487;53.320;8.672;2022-08-25T16:12:51;101272.81;;;26.47;37.81
20656;BME280;10487;53.320;8.672;2022-08-25T16:15:53;101268.41;;;26.46;37.86
20656;BME280;10487;53.320;8.672;2022-08-25T16:18:56;101266.31;;;26.48;37.68
20656;BME280;10487;53.320;8.672;2022-08-25T16:21:58;101266.09;;;26.49;37.75
20656;BME280;10487;53.320;8.672;2022-08-25T16:25:01;101265.91;;;26.51;37.70
20656;BME280;10487;53.320;8.672;2022-08-25T16:28:07;101257.50;;;26.52;37.85
20656;BME280;10487;53.320;8.672;2022-08-25T16:31:12;101264.22;;;26.50;37.78
20656;BME280;10487;53.320;8.672;2022-08-25T16:34:15;101264.63;;;26.47;37.59
20656;BME280;10487;53.320;8.672;2022-08-25T16:37:18;101258.69;;;26.43;37.80
20656;BME280;10487;53.320;8.672;2022-08-25T16:40:20;101255.72;;;26.38;37.66
20656;BME280;10487;53.320;8.672;2022-08-25T16:43:26;101255.91;;;26.36;37.80
20656;BME280;10487;53.320;8.672;2022-08-25T16:46:28;101262.63;;;26.34;37.91
20656;BME280;10487;53.320;8.672;2022-08-25T16:49:31;101256.53;;;26.32;37.55
20656;BME280;10487;53.320;8.672;2022-08-25T16:52:33;101247.69;;;26.30;37.95
20656;BME280;10487;53.320;8.672;2022-08-25T16:56:03;101252.72;;;26.26;37.87
20656;BME280;10487;53.320;8.672;2022-08-25T16:59:10;101250.41;;;26.23;38.16
20656;BME280;10487;53.320;8.672;2022-08-25T17:02:13;101240.72;;;26.21;37.86
20656;BME280;10487;53.320;8.672;2022-08-25T17:05:14;101239.88;;;26.20;37.75
20656;BME280;10487;53.320;8.672;2022-08-25T17:08:18;101243.84;;;26.18;37.82
20656;BME280;10487;53.320;8.672;2022-08-25T17:11:33;101245.09;;;26.15;37.76
20656;BME280;10487;53.320;8.672;2022-08-25T17:14:36;101245.72;;;26.11;37.87
20656;BME280;10487;53.320;8.672;2022-08-25T17:17:38;101229.91;;;26.06;37.84
20656;BME280;10487;53.320;8.672;2022-08-25T17:20:41;101235.34;;;26.00;37.84
20656;BME280;10487;53.320;8.672;2022-08-25T17:23:44;101239.72;;;25.94;38.00
20656;BME280;10487;53.320;8.672;2022-08-25T17:26:46;101243.25;;;25.88;38.08
20656;BME280;10487;53.320;8.672;2022-08-25T17:29:51;101245.75;;;25.83;38.05
20656;BME280;10487;53.320;8.672;2022-08-25T17:32:53;101244.44;;;25.79;37.98
20656;BME280;10487;53.320;8.672;2022-08-25T17:35:56;101242.31;;;25.74;37.95
20656;BME280;10487;53.320;8.672;2022-08-25T17:38:58;101247.34;;;25.71;38.13
20656;BME280;10487;53.320;8.672;2022-08-25T17:42:00;101245.19;;;25.66;38.10
20656;BME280;10487;53.320;8.672;2022-08-25T17:45:02;101241.19;;;25.62;37.98
20656;BME280;10487;53.320;8.672;2022-08-25T17:48:05;101248.09;;;25.58;38.09
20656;BME280;10487;53.320;8.672;2022-08-25T17:51:08;101245.97;;;25.54;37.98
20656;BME280;10487;53.320;8.672;2022-08-25T17:54:10;101250.13;;;25.50;38.07
20656;BME280;10487;53.320;8.672;2022-08-25T17:57:13;101245.66;;;25.42;38.40
20656;BME280;10487;53.320;8.672;2022-08-25T18:00:18;101258.41;;;25.35;38.31
20656;BME280;10487;53.320;8.672;2022-08-25T18:03:21;101259.19;;;25.29;38.07
20656;BME280;10487;53.320;8.672;2022-08-25T18:06:24;101249.03;;;25.23;38.35
20656;BME280;10487;53.320;8.672;2022-08-25T18:09:26;101260.09;;;25.15;38.20
20656;BME280;10487;53.320;8.672;2022-08-25T18:12:28;101257.09;;;25.10;37.99
20656;BME280;10487;53.320;8.672;2022-08-25T18:15:30;101254.97;;;25.05;38.27
20656;BME280;10487;53.320;8.672;2022-08-25T18:18:32;101256.59;;;25.00;38.63
20656;BME280;10487;53.320;8.672;2022-08-25T18:21:35;101253.59;;;24.95;38.34
20656;BME280;10487;53.320;8.672;2022-08-25T18:24:37;101256.72;;;24.92;38.55
20656;BME280;10487;53.320;8.672;2022-08-25T18:27:40;101256.47;;;24.87;38.43
20656;BME280;10487;53.320;8.672;2022-08-25T18:30:43;101253.28;;;24.83;38.34
20656;BME280;10487;53.320;8.672;2022-08-25T18:33:45;101258.03;;;24.96;38.59